Time;durP1;ratioP1;P1;durP2;ratioP2;P2;SDS_P1;SDS_P2;PMS_P1;PMS_P2;Temp;Humidity;BMP_temperature;BMP_pressure;BME280_temperature;BME280_humidity;BME280_pressure;Samples;Min_cycle;Max_cycle;Signal;HPM_P1;HPM_P2
2022/10/07 00:01:37;;;;;;;4.93;2.00;;;;;;;;;;5086683;28;20047;-64
2022/10/07 00:04:03;;;;;;;7.05;2.00;;;;;;;;;;5082783;28;20047;-62
2022/10/07 00:06:29;;;;;;;5.85;1.80;;;;;;;;;;5082971;28;20545;-66
2022/10/07 00:08:54;;;;;;;7.30;2.15;;;;;;;;;;5086937;28;20048;-61
2022/10/07 00:11:26;;;;;;;4.85;1.90;;;;;;;;;;5083640;28;21418;-62
2022/10/07 00:13:55;;;;;;;7.00;2.20;;;;;;;;;;5086018;28;20052;-65
2022/10/07 00:16:24;;;;;;;8.05;1.90;;;;;;;;;;5087099;28;20043;-66
2022/10/07 00:18:51;;;;;;;6.50;1.95;;;;;;;;;;5084736;28;20058;-62
2022/10/07 00:21:18;;;;;;;6.82;1.77;;;;;;;;;;5087493;28;20040;-64
2022/10/07 00:23:46;;;;;;;4.57;1.95;;;;;;;;;;5084160;28;21249;-65
2022/10/07 00:26:14;;;;;;;5.13;1.88;;;;;;;;;;5085352;28;20458;-65
2022/10/07 00:28:41;;;;;;;4.15;1.88;;;;;;;;;;5089340;28;20175;-64
2022/10/07 00:31:10;;;;;;;5.97;1.98;;;;;;;;;;5085186;28;20040;-61
2022/10/07 00:33:37;;;;;;;4.25;2.05;;;;;;;;;;5080713;28;20147;-60
2022/10/07 00:36:08;;;;;;;5.45;2.05;;;;;;;;;;5082449;28;20051;-63
2022/10/07 00:38:34;;;;;;;9.13;2.03;;;;;;;;;;5081409;28;20164;-66
2022/10/07 00:41:00;;;;;;;7.20;2.20;;;;;;;;;;5080268;28;20173;-65
2022/10/07 00:43:30;;;;;;;5.03;2.08;;;;;;;;;;5086307;28;20044;-59
2022/10/07 00:46:31;;;;;;;6.72;1.63;;;;;;;;;;5088807;28;20062;-60
2022/10/07 00:49:04;;;;;;;6.95;1.80;;;;;;;;;;5084366;28;20131;-64
2022/10/07 00:51:32;;;;;;;4.65;2.08;;;;;;;;;;5087215;28;20048;-62
2022/10/07 00:54:01;;;;;;;8.85;2.20;;;;;;;;;;5085662;28;20665;-60
2022/10/07 00:56:28;;;;;;;7.95;1.98;;;;;;;;;;5083498;28;20398;-63
2022/10/07 00:58:55;;;;;;;4.45;1.92;;;;;;;;;;5088224;28;20044;-60
2022/10/07 01:01:21;;;;;;;4.95;1.90;;;;;;;;;;5086514;28;20043;-67
2022/10/07 01:03:48;;;;;;;8.40;1.95;;;;;;;;;;5082671;28;20497;-61
2022/10/07 01:06:14;;;;;;;4.60;1.80;;;;;;;;;;5089585;28;20586;-67
2022/10/07 01:08:42;;;;;;;5.88;1.73;;;;;;;;;;5091444;28;20062;-64
2022/10/07 01:11:45;;;;;;;7.30;1.85;;;;;;;;;;5085660;28;20044;-60
2022/10/07 01:14:33;;;;;;;6.22;1.90;;;;;;;;;;5084871;28;20048;-60
2022/10/07 01:17:21;;;;;;;10.48;2.95;;;;;;;;;;5087884;28;20465;-61
2022/10/07 01:19:55;;;;;;;6.72;2.08;;;;;;;;;;5083951;28;20059;-61
2022/10/07 01:22:28;;;;;;;;;;;;;;;;;;5085528;28;20060;-61
2022/10/07 01:25:22;;;;;;;8.38;2.20;;;;;;;;;;5081433;28;20354;-60
2022/10/07 01:27:59;;;;;;;7.25;2.00;;;;;;;;;;5080068;28;20605;-60
2022/10/07 01:30:27;;;;;;;9.38;2.10;;;;;;;;;;5081816;28;20558;-62
2022/10/07 01:33:00;;;;;;;7.63;2.17;;;;;;;;;;5085926;28;20043;-61
2022/10/07 01:35:32;;;;;;;6.78;1.80;;;;;;;;;;5083326;28;20056;-66
2022/10/07 01:38:03;;;;;;;11.10;2.00;;;;;;;;;;5086819;28;20055;-59
2022/10/07 01:40:36;;;;;;;7.60;2.10;;;;;;;;;;5082776;28;20052;-68
2022/10/07 01:43:01;;;;;;;4.15;1.80;;;;;;;;;;5083437;28;20084;-64
2022/10/07 01:45:29;;;;;;;7.13;2.00;;;;;;;;;;5081880;28;20180;-60
2022/10/07 01:47:57;;;;;;;3.80;1.63;;;;;;;;;;5081632;28;20501;-60
2022/10/07 01:50:28;;;;;;;6.13;1.88;;;;;;;;;;5086685;28;20482;-60
2022/10/07 01:53:14;;;;;;;5.85;1.77;;;;;;;;;;5086370;28;20123;-62
2022/10/07 01:55:50;;;;;;;8.88;2.10;;;;;;;;;;5086758;28;20071;-62
2022/10/07 01:58:22;;;;;;;3.50;1.90;;;;;;;;;;5089993;28;20040;-60
2022/10/07 02:01:13;;;;;;;4.80;1.70;;;;;;;;;;5088189;28;20048;-59
2022/10/07 02:03:54;;;;;;;4.63;1.48;;;;;;;;;;5086233;28;20409;-58
2022/10/07 02:06:20;;;;;;;5.72;1.70;;;;;;;;;;5085862;28;20097;-60
2022/10/07 02:08:53;;;;;;;5.40;2.13;;;;;;;;;;5087363;28;20052;-65
2022/10/07 02:11:27;;;;;;;6.15;1.70;;;;;;;;;;5084793;28;20036;-64
2022/10/07 02:13:59;;;;;;;5.88;2.10;;;;;;;;;;5084225;28;20040;-59
2022/10/07 02:16:32;;;;;;;4.85;1.90;;;;;;;;;;5088969;28;20044;-67
2022/10/07 02:19:02;;;;;;;7.28;2.33;;;;;;;;;;5083785;28;20100;-59
2022/10/07 02:21:31;;;;;;;5.45;1.95;;;;;;;;;;5084557;28;20417;-57
2022/10/07 02:23:59;;;;;;;5.68;2.17;;;;;;;;;;5086512;28;20048;-60
2022/10/07 02:26:28;;;;;;;3.55;2.00;;;;;;;;;;5090487;28;20048;-64
2022/10/07 02:28:57;;;;;;;5.88;2.30;;;;;;;;;;5089258;28;20046;-63
2022/10/07 02:31:29;;;;;;;8.43;2.13;;;;;;;;;;5084643;28;20211;-60
2022/10/07 02:33:57;;;;;;;6.57;1.92;;;;;;;;;;5087105;28;20206;-64
2022/10/07 02:36:28;;;;;;;3.65;1.95;;;;;;;;;;5090326;28;20040;-66
2022/10/07 02:38:55;;;;;;;7.80;2.03;;;;;;;;;;5089262;28;20438;-61
2022/10/07 02:41:42;;;;;;;5.38;1.60;;;;;;;;;;5091643;28;20043;-62
2022/10/07 02:44:24;;;;;;;6.90;2.20;;;;;;;;;;5086534;28;20046;-64
2022/10/07 02:46:58;;;;;;;6.00;2.22;;;;;;;;;;5091714;28;20497;-62
2022/10/07 02:49:25;;;;;;;7.93;2.22;;;;;;;;;;5089646;28;20540;-64
2022/10/07 02:51:58;;;;;;;5.45;2.25;;;;;;;;;;5084865;28;20496;-60
2022/10/07 02:54:31;;;;;;;7.55;2.30;;;;;;;;;;5085897;28;20059;-62
2022/10/07 02:56:59;;;;;;;8.80;2.40;;;;;;;;;;5087826;28;20036;-64
2022/10/07 02:59:26;;;;;;;8.00;2.20;;;;;;;;;;5089198;28;20044;-60
2022/10/07 03:01:55;;;;;;;6.20;2.05;;;;;;;;;;5082411;28;20536;-62
2022/10/07 03:04:22;;;;;;;6.57;1.90;;;;;;;;;;5087994;28;20050;-61
2022/10/07 03:06:48;;;;;;;6.72;1.95;;;;;;;;;;5086777;28;20044;-60
2022/10/07 03:09:14;;;;;;;8.55;2.40;;;;;;;;;;5083443;28;20052;-60
2022/10/07 03:11:40;;;;;;;5.63;2.05;;;;;;;;;;5086772;28;20043;-64
2022/10/07 03:14:06;;;;;;;4.70;1.92;;;;;;;;;;5087964;28;20040;-60
2022/10/07 03:16:32;;;;;;;5.70;2.05;;;;;;;;;;5084127;28;20040;-64
2022/10/07 03:18:57;;;;;;;4.30;1.90;;;;;;;;;;5088607;28;20032;-59
2022/10/07 03:21:24;;;;;;;6.10;2.55;;;;;;;;;;5094088;28;20072;-60
2022/10/07 03:23:51;;;;;;;3.47;2.00;;;;;;;;;;5088527;28;20052;-64
2022/10/07 03:26:18;;;;;;;6.57;2.20;;;;;;;;;;5085436;28;20363;-64
2022/10/07 03:28:44;;;;;;;5.05;2.28;;;;;;;;;;5086015;28;20089;-62
2022/10/07 03:31:11;;;;;;;3.92;2.20;;;;;;;;;;5087267;28;20123;-64
2022/10/07 03:33:37;;;;;;;10.45;2.55;;;;;;;;;;5085665;28;20044;-60
2022/10/07 03:36:07;;;;;;;4.55;2.13;;;;;;;;;;5085756;28;20502;-60
2022/10/07 03:38:34;;;;;;;7.97;2.03;;;;;;;;;;5088197;28;20490;-60
2022/10/07 03:41:06;;;;;;;7.43;2.30;;;;;;;;;;5080343;28;20052;-61
2022/10/07 03:43:32;;;;;;;5.03;2.30;;;;;;;;;;5086769;28;20068;-60
2022/10/07 03:46:01;;;;;;;5.38;2.13;;;;;;;;;;5089098;28;20051;-60
2022/10/07 03:48:29;;;;;;;5.25;2.45;;;;;;;;;;5082311;28;20054;-64
2022/10/07 03:50:57;;;;;;;6.03;2.10;;;;;;;;;;5085158;28;20090;-59
2022/10/07 03:53:27;;;;;;;5.88;2.00;;;;;;;;;;5087980;28;20134;-61
2022/10/07 03:55:53;;;;;;;8.50;2.20;;;;;;;;;;5084405;28;20052;-60
2022/10/07 03:58:19;;;;;;;6.80;2.28;;;;;;;;;;5083413;28;20048;-60
2022/10/07 04:00:45;;;;;;;3.17;1.83;;;;;;;;;;5083159;28;20044;-63
2022/10/07 04:03:13;;;;;;;4.10;1.95;;;;;;;;;;5083545;28;20051;-59
2022/10/07 04:05:39;;;;;;;5.95;2.28;;;;;;;;;;5086727;28;20032;-63
2022/10/07 04:08:04;;;;;;;5.43;1.92;;;;;;;;;;5083367;28;20097;-60
2022/10/07 04:10:31;;;;;;;5.60;2.03;;;;;;;;;;5079697;28;20577;-61
2022/10/07 04:12:57;;;;;;;4.75;1.95;;;;;;;;;;5086862;28;20127;-64
2022/10/07 04:15:22;;;;;;;5.43;2.38;;;;;;;;;;5083393;28;20273;-63
2022/10/07 04:17:55;;;;;;;7.00;2.28;;;;;;;;;;5085953;28;20287;-62
2022/10/07 04:20:20;;;;;;;6.53;2.10;;;;;;;;;;5083021;28;20068;-60
2022/10/07 04:22:46;;;;;;;6.30;2.13;;;;;;;;;;5084098;28;20769;-61
2022/10/07 04:27:57;;;;;;;5.72;2.53;;;;;;;;;;5090258;28;20080;-61
2022/10/07 04:30:25;;;;;;;4.72;2.35;;;;;;;;;;5088990;28;20328;-63
2022/10/07 04:32:51;;;;;;;5.68;2.30;;;;;;;;;;5088759;28;20060;-62
2022/10/07 04:35:18;;;;;;;6.72;2.35;;;;;;;;;;5087288;28;20036;-63
2022/10/07 04:37:46;;;;;;;5.90;2.28;;;;;;;;;;5087603;28;20055;-63
2022/10/07 04:40:12;;;;;;;7.43;2.50;;;;;;;;;;5085125;28;20111;-60
2022/10/07 04:45:22;;;;;;;;;;;;;;;;;;5083993;28;20035;-60
2022/10/07 04:47:48;;;;;;;5.55;2.17;;;;;;;;;;5074258;28;20365;-62
2022/10/07 04:50:14;;;;;;;5.93;1.95;;;;;;;;;;5081558;28;20040;-63
2022/10/07 04:52:41;;;;;;;6.60;2.10;;;;;;;;;;5077044;28;20052;-61
2022/10/07 04:55:10;;;;;;;6.97;2.65;;;;;;;;;;5081590;28;20328;-63
2022/10/07 04:57:35;;;;;;;6.18;2.45;;;;;;;;;;5080566;28;20044;-65
2022/10/07 05:00:03;;;;;;;5.15;2.10;;;;;;;;;;5089120;28;20048;-62
2022/10/07 05:02:29;;;;;;;10.13;2.45;;;;;;;;;;5088541;28;20498;-63
2022/10/07 05:04:55;;;;;;;4.20;2.25;;;;;;;;;;5084050;28;20126;-60
2022/10/07 05:07:21;;;;;;;6.72;2.80;;;;;;;;;;5082511;28;20127;-60
2022/10/07 05:09:46;;;;;;;7.43;2.70;;;;;;;;;;5084478;28;20086;-63
2022/10/07 05:12:12;;;;;;;6.45;2.65;;;;;;;;;;5086838;28;20050;-63
2022/10/07 05:14:41;;;;;;;4.40;2.40;;;;;;;;;;5079478;28;20049;-61
2022/10/07 05:17:06;;;;;;;4.90;2.40;;;;;;;;;;5091029;28;20098;-64
2022/10/07 05:19:32;;;;;;;8.05;2.72;;;;;;;;;;5087542;28;20331;-67
2022/10/07 05:21:58;;;;;;;3.85;2.65;;;;;;;;;;5088343;28;20097;-58
2022/10/07 05:24:24;;;;;;;6.78;3.17;;;;;;;;;;5084720;28;20048;-62
2022/10/07 05:26:50;;;;;;;8.80;2.75;;;;;;;;;;5084191;28;20074;-60
2022/10/07 05:29:16;;;;;;;7.85;2.80;;;;;;;;;;5085256;28;20051;-60
2022/10/07 05:31:42;;;;;;;7.85;2.70;;;;;;;;;;5089218;28;20051;-64
2022/10/07 05:34:07;;;;;;;9.30;2.45;;;;;;;;;;5090750;28;20117;-61
2022/10/07 05:36:34;;;;;;;4.53;2.40;;;;;;;;;;5092078;28;20056;-59
2022/10/07 05:38:59;;;;;;;5.10;2.30;;;;;;;;;;5084395;28;20040;-62
2022/10/07 05:41:28;;;;;;;5.78;2.45;;;;;;;;;;5081893;28;20452;-60
2022/10/07 05:43:54;;;;;;;4.57;2.67;;;;;;;;;;5081644;28;20056;-60
2022/10/07 05:46:21;;;;;;;6.75;2.90;;;;;;;;;;5089909;28;20546;-64
2022/10/07 05:48:50;;;;;;;3.90;2.33;;;;;;;;;;5089567;28;20090;-60
2022/10/07 05:51:17;;;;;;;5.85;2.92;;;;;;;;;;5084576;28;20166;-65
2022/10/07 05:53:45;;;;;;;6.88;2.67;;;;;;;;;;5084773;28;20062;-62
2022/10/07 05:56:15;;;;;;;11.07;2.70;;;;;;;;;;5081829;28;20444;-63
2022/10/07 05:58:41;;;;;;;9.18;2.58;;;;;;;;;;5085679;28;20063;-60
2022/10/07 06:01:13;;;;;;;5.22;2.72;;;;;;;;;;5078844;28;20049;-63
2022/10/07 06:03:40;;;;;;;11.45;3.10;;;;;;;;;;5088628;28;20127;-60
2022/10/07 06:06:07;;;;;;;6.32;2.95;;;;;;;;;;5088219;28;20486;-62
2022/10/07 06:08:34;;;;;;;8.40;3.63;;;;;;;;;;5087727;28;20048;-62
2022/10/07 06:13:53;;;;;;;8.18;3.10;;;;;;;;;;5085723;28;20048;-63
2022/10/07 06:16:19;;;;;;;8.45;3.40;;;;;;;;;;5081825;28;20039;-69
2022/10/07 06:18:46;;;;;;;7.05;3.30;;;;;;;;;;5083453;28;20056;-64
2022/10/07 06:21:12;;;;;;;8.13;3.35;;;;;;;;;;5077986;28;20043;-63
2022/10/07 06:23:38;;;;;;;10.20;3.30;;;;;;;;;;5081947;28;20135;-64
2022/10/07 06:26:06;;;;;;;6.97;3.28;;;;;;;;;;5084427;28;20044;-68
2022/10/07 06:28:35;;;;;;;8.20;3.10;;;;;;;;;;5081031;28;20653;-69
2022/10/07 06:31:10;;;;;;;10.38;3.70;;;;;;;;;;5088841;28;20051;-64
2022/10/07 06:33:36;;;;;;;8.07;3.50;;;;;;;;;;5081653;28;20040;-65
2022/10/07 06:36:03;;;;;;;8.02;3.53;;;;;;;;;;5084234;28;20051;-67
2022/10/07 06:38:29;;;;;;;9.38;3.75;;;;;;;;;;5079426;28;20059;-64
2022/10/07 06:40:57;;;;;;;7.63;3.17;;;;;;;;;;5083361;28;20052;-63
2022/10/07 06:43:28;;;;;;;5.15;2.65;;;;;;;;;;5085876;28;20401;-70
2022/10/07 06:46:02;;;;;;;7.82;2.53;;;;;;;;;;5087352;28;20548;-62
2022/10/07 06:48:30;;;;;;;6.15;2.10;;;;;;;;;;5082845;28;20636;-68
2022/10/07 06:51:02;;;;;;;4.07;2.00;;;;;;;;;;5085667;28;20032;-66
2022/10/07 06:53:28;;;;;;;7.70;2.88;;;;;;;;;;5079803;28;20464;-66
2022/10/07 06:55:56;;;;;;;5.45;2.70;;;;;;;;;;5081117;28;20127;-68
2022/10/07 06:58:25;;;;;;;5.47;2.50;;;;;;;;;;5086385;28;20044;-63
2022/10/07 07:00:55;;;;;;;4.50;2.33;;;;;;;;;;5079706;28;20048;-65
2022/10/07 07:03:22;;;;;;;5.68;2.30;;;;;;;;;;5072842;28;20543;-65
2022/10/07 07:05:50;;;;;;;5.68;2.58;;;;;;;;;;5085134;28;20047;-66
2022/10/07 07:08:17;;;;;;;6.85;2.38;;;;;;;;;;5083279;28;20052;-64
2022/10/07 07:10:44;;;;;;;6.65;2.30;;;;;;;;;;5076329;28;20048;-64
2022/10/07 07:13:11;;;;;;;3.95;2.33;;;;;;;;;;5081090;28;20899;-64
2022/10/07 07:15:38;;;;;;;7.95;2.53;;;;;;;;;;5084171;28;20052;-63
2022/10/07 07:18:06;;;;;;;5.03;2.47;;;;;;;;;;5082334;28;20040;-65
2022/10/07 07:20:37;;;;;;;5.03;2.28;;;;;;;;;;5086393;28;20044;-67
2022/10/07 07:24:29;;;;;;;6.07;2.50;;;;;;;;;;5073169;27;20399;-69
2022/10/07 07:26:55;;;;;;;7.43;2.83;;;;;;;;;;5059566;28;20045;-72
2022/10/07 07:29:20;;;;;;;8.82;3.38;;;;;;;;;;5063844;28;20051;-71
2022/10/07 07:31:48;;;;;;;7.15;4.00;;;;;;;;;;5059461;28;20048;-72
2022/10/07 07:34:14;;;;;;;6.25;2.67;;;;;;;;;;5061096;28;20069;-72
2022/10/07 07:36:46;;;;;;;6.78;2.60;;;;;;;;;;5058322;28;20084;-69
2022/10/07 07:39:15;;;;;;;5.60;2.35;;;;;;;;;;5053191;28;20049;-69
2022/10/07 07:41:45;;;;;;;6.45;2.58;;;;;;;;;;5059713;28;20087;-70
2022/10/07 07:44:13;;;;;;;7.90;2.33;;;;;;;;;;5063241;28;20060;-70
2022/10/07 07:46:42;;;;;;;6.45;2.58;;;;;;;;;;5063820;28;20090;-70
2022/10/07 07:49:09;;;;;;;6.18;2.00;;;;;;;;;;5058695;28;20055;-73
2022/10/07 07:51:36;;;;;;;6.13;2.15;;;;;;;;;;5057381;28;20045;-72
2022/10/07 07:54:03;;;;;;;7.40;2.72;;;;;;;;;;5055718;28;20094;-71
2022/10/07 07:56:30;;;;;;;8.60;2.95;;;;;;;;;;5052619;28;20049;-71
2022/10/07 07:58:57;;;;;;;8.90;2.58;;;;;;;;;;5062837;28;20048;-69
2022/10/07 08:01:23;;;;;;;10.13;2.80;;;;;;;;;;5068898;28;20045;-71
2022/10/07 08:03:49;;;;;;;7.05;2.53;;;;;;;;;;5061211;28;20079;-71
2022/10/07 08:06:18;;;;;;;6.13;2.40;;;;;;;;;;5061929;28;20397;-71
2022/10/07 08:08:44;;;;;;;10.07;2.92;;;;;;;;;;5060189;28;20044;-71
2022/10/07 08:11:15;;;;;;;5.00;2.28;;;;;;;;;;5063869;28;20040;-69
2022/10/07 08:13:42;;;;;;;4.88;2.33;;;;;;;;;;5057249;28;20045;-71
2022/10/07 08:16:13;;;;;;;5.90;2.33;;;;;;;;;;5063179;28;20112;-69
2022/10/07 08:18:40;;;;;;;4.85;2.58;;;;;;;;;;5063545;28;20045;-71
2022/10/07 08:21:06;;;;;;;7.60;2.58;;;;;;;;;;5062645;28;20045;-67
2022/10/07 08:23:34;;;;;;;8.20;2.75;;;;;;;;;;5059534;28;20052;-68
2022/10/07 08:26:02;;;;;;;7.85;2.70;;;;;;;;;;5063299;28;20466;-71
2022/10/07 08:28:28;;;;;;;5.65;2.28;;;;;;;;;;5063510;28;20045;-71
2022/10/07 08:30:54;;;;;;;5.72;2.30;;;;;;;;;;5063252;28;20059;-70
2022/10/07 08:33:21;;;;;;;8.70;2.55;;;;;;;;;;5062245;28;20048;-70
2022/10/07 08:36:10;;;;;;;8.18;2.85;;;;;;;;;;5047140;28;20136;-69
2022/10/07 08:38:38;;;;;;;12.35;2.80;;;;;;;;;;5048070;28;20043;-71
2022/10/07 08:41:07;;;;;;;10.93;2.45;;;;;;;;;;5050710;28;20509;-74
2022/10/07 08:43:35;;;;;;;8.15;2.47;;;;;;;;;;5050605;28;20053;-71
2022/10/07 08:46:03;;;;;;;7.13;2.45;;;;;;;;;;5050365;28;20052;-68
2022/10/07 08:48:37;;;;;;;7.03;2.70;;;;;;;;;;5036813;28;20111;-69
2022/10/07 08:51:08;;;;;;;7.93;3.00;;;;;;;;;;5050118;28;20037;-68
2022/10/07 08:53:36;;;;;;;12.35;2.40;;;;;;;;;;5033068;28;20049;-69
2022/10/07 08:56:02;;;;;;;5.57;2.55;;;;;;;;;;5049657;28;20045;-69
2022/10/07 08:58:49;;;;;;;9.57;2.70;;;;;;;;;;5048168;28;20449;-70
2022/10/07 09:01:28;;;;;;;8.40;2.67;;;;;;;;;;5049228;28;20618;-70
2022/10/07 09:04:02;;;;;;;8.20;2.45;;;;;;;;;;5036679;28;20045;-69
2022/10/07 09:06:37;;;;;;;10.77;2.97;;;;;;;;;;5050245;28;20609;-71
2022/10/07 09:09:16;;;;;;;10.10;3.00;;;;;;;;;;5043385;28;20041;-69
2022/10/07 09:11:45;;;;;;;5.35;2.13;;;;;;;;;;5048490;28;20544;-70
2022/10/07 09:14:23;;;;;;;9.40;2.70;;;;;;;;;;5049293;28;20521;-70
2022/10/07 09:16:51;;;;;;;12.68;3.00;;;;;;;;;;5046572;28;20056;-69
2022/10/07 09:19:24;;;;;;;6.28;3.33;;;;;;;;;;5046952;28;20486;-71
2022/10/07 09:21:50;;;;;;;11.13;3.30;;;;;;;;;;5037618;28;20522;-71
2022/10/07 09:24:20;;;;;;;12.73;3.45;;;;;;;;;;5048257;28;20301;-69
2022/10/07 09:26:46;;;;;;;10.23;3.67;;;;;;;;;;5051352;28;20045;-68
2022/10/07 09:29:12;;;;;;;6.88;3.67;;;;;;;;;;5050906;28;20048;-69
2022/10/07 09:31:38;;;;;;;13.52;3.85;;;;;;;;;;5051610;28;20407;-67
2022/10/07 09:34:11;;;;;;;15.55;4.20;;;;;;;;;;5050318;28;20057;-71
2022/10/07 09:37:16;;;;;;;12.02;3.28;;;;;;;;;;5042856;28;20094;-71
2022/10/07 09:39:44;;;;;;;11.05;2.80;;;;;;;;;;5049699;28;20048;-68
2022/10/07 09:42:35;;;;;;;13.93;3.42;;;;;;;;;;5049543;28;20048;-68
2022/10/07 09:45:21;;;;;;;12.27;3.10;;;;;;;;;;5042308;28;20529;-69
2022/10/07 09:47:55;;;;;;;9.70;3.05;;;;;;;;;;5050282;28;20463;-67
2022/10/07 09:50:31;;;;;;;;;;;;;;;;;;5051039;28;20116;-68
2022/10/07 09:52:56;;;;;;;6.85;2.90;;;;;;;;;;5040626;28;19928;-68
2022/10/07 09:55:38;;;;;;;12.85;3.10;;;;;;;;;;5050005;28;20045;-69
2022/10/07 09:58:15;;;;;;;10.45;3.10;;;;;;;;;;5044990;28;20045;-68
2022/10/07 10:00:44;;;;;;;9.90;2.95;;;;;;;;;;5050347;28;20120;-72
2022/10/07 10:03:11;;;;;;;11.95;3.50;;;;;;;;;;5050010;28;20055;-71
2022/10/07 10:06:05;;;;;;;11.85;3.13;;;;;;;;;;5047011;28;20055;-71
2022/10/07 10:08:40;;;;;;;10.35;3.20;;;;;;;;;;5050532;28;20051;-68
2022/10/07 10:11:24;;;;;;;8.50;3.03;;;;;;;;;;5051565;28;20056;-69
2022/10/07 10:13:51;;;;;;;12.43;4.63;;;;;;;;;;5039649;28;20041;-70
2022/10/07 10:16:23;;;;;;;6.95;2.90;;;;;;;;;;5049447;28;20732;-70
2022/10/07 10:19:03;;;;;;;11.10;2.65;;;;;;;;;;5048814;28;20045;-71
2022/10/07 10:21:35;;;;;;;12.75;2.95;;;;;;;;;;5033787;28;20124;-72
2022/10/07 10:26:24;;;;;;;8.50;2.80;;;;;;;;;;5076151;28;20053;-68
2022/10/07 10:27:12;;;;;;;7.72;2.60;;;;;;;;;;5050759;28;20053;-70
2022/10/07 10:29:56;;;;;;;9.63;2.78;;;;;;;;;;5036758;28;20045;-70
2022/10/07 10:33:13;;;;;;;8.98;2.67;;;;;;;;;;5049401;28;20045;-67
2022/10/07 10:35:57;;;;;;;10.52;2.80;;;;;;;;;;4979615;28;20084;-72
2022/10/07 10:38:45;;;;;;;13.00;3.05;;;;;;;;;;4982413;28;20062;-71
2022/10/07 10:41:29;;;;;;;9.55;2.95;;;;;;;;;;4984634;28;20334;-69
2022/10/07 10:44:31;;;;;;;15.57;2.70;;;;;;;;;;5004387;28;20069;-69
2022/10/07 10:46:59;;;;;;;9.75;2.63;;;;;;;;;;4987333;28;20583;-69
2022/10/07 10:49:28;;;;;;;14.75;3.10;;;;;;;;;;4986696;28;20084;-73
2022/10/07 10:51:54;;;;;;;5.45;2.45;;;;;;;;;;4987788;28;20125;-71
2022/10/07 10:54:30;;;;;;;5.78;2.45;;;;;;;;;;4987411;28;20054;-73
2022/10/07 10:57:31;;;;;;;6.03;2.47;;;;;;;;;;4985422;28;20538;-72
2022/10/07 11:00:03;;;;;;;8.70;2.50;;;;;;;;;;4983690;28;20137;-70
2022/10/07 11:02:39;;;;;;;10.13;2.75;;;;;;;;;;4984260;28;20112;-70
2022/10/07 11:05:17;;;;;;;11.05;2.50;;;;;;;;;;4982968;28;20086;-71
2022/10/07 11:07:49;;;;;;;15.20;1.90;;;;;;;;;;4985888;28;20050;-71
2022/10/07 11:10:15;;;;;;;10.60;2.25;;;;;;;;;;4995864;28;20470;-71
2022/10/07 11:12:45;;;;;;;8.40;1.85;;;;;;;;;;5044036;28;20037;-70
2022/10/07 11:15:18;;;;;;;7.30;1.98;;;;;;;;;;5045107;28;20056;-70
2022/10/07 11:17:46;;;;;;;6.22;1.83;;;;;;;;;;5049865;28;20041;-73
2022/10/07 11:20:12;;;;;;;11.00;2.08;;;;;;;;;;5041023;28;20128;-69
2022/10/07 11:22:43;;;;;;;9.25;2.08;;;;;;;;;;5040277;28;20140;-68
2022/10/07 11:25:24;;;;;;;15.32;1.92;;;;;;;;;;5044239;28;20083;-69
2022/10/07 11:27:54;;;;;;;5.53;1.70;;;;;;;;;;5047426;28;20047;-69
2022/10/07 11:30:22;;;;;;;6.78;2.00;;;;;;;;;;5046291;28;20640;-68
2022/10/07 11:33:14;;;;;;;5.75;2.00;;;;;;;;;;5046593;28;20056;-72
2022/10/07 11:35:56;;;;;;;3.83;1.65;;;;;;;;;;5050047;28;20052;-67
2022/10/07 11:38:32;;;;;;;5.95;1.92;;;;;;;;;;5050044;28;20053;-70
2022/10/07 11:41:01;;;;;;;9.00;1.90;;;;;;;;;;5047993;28;20502;-67
2022/10/07 11:43:43;;;;;;;8.38;1.83;;;;;;;;;;5046972;28;20131;-67
2022/10/07 11:46:23;;;;;;;7.53;1.90;;;;;;;;;;5045313;28;20390;-69
2022/10/07 11:48:51;;;;;;;9.13;1.90;;;;;;;;;;5046614;28;20037;-68
2022/10/07 11:51:58;;;;;;;6.80;1.65;;;;;;;;;;5046812;28;20072;-68
2022/10/07 11:54:27;;;;;;;9.65;2.05;;;;;;;;;;5046557;28;20506;-69
2022/10/07 11:56:57;;;;;;;9.50;2.50;;;;;;;;;;5046283;28;20087;-67
2022/10/07 11:59:48;;;;;;;9.23;2.20;;;;;;;;;;5048579;28;20053;-70
2022/10/07 12:02:27;;;;;;;6.00;1.88;;;;;;;;;;5046953;28;20276;-68
2022/10/07 12:05:01;;;;;;;12.77;2.35;;;;;;;;;;5046162;28;20064;-69
2022/10/07 12:07:35;;;;;;;8.68;1.90;;;;;;;;;;5046702;28;20048;-68
2022/10/07 12:10:02;;;;;;;7.57;2.25;;;;;;;;;;5045054;28;20052;-68
2022/10/07 12:12:44;;;;;;;7.50;1.90;;;;;;;;;;5050302;28;20421;-69
2022/10/07 12:15:29;;;;;;;10.48;2.95;;;;;;;;;;5033731;28;20068;-69
2022/10/07 12:18:04;;;;;;;9.85;2.00;;;;;;;;;;5052167;28;20052;-66
2022/10/07 12:20:36;;;;;;;9.20;1.95;;;;;;;;;;5048076;28;20040;-68
2022/10/07 12:23:17;;;;;;;11.63;1.95;;;;;;;;;;5048868;28;20053;-67
2022/10/07 12:25:47;;;;;;;5.07;1.77;;;;;;;;;;5048160;28;20174;-69
2022/10/07 12:28:27;;;;;;;6.22;1.90;;;;;;;;;;5050181;28;20057;-67
2022/10/07 12:30:56;;;;;;;7.18;2.00;;;;;;;;;;5050901;28;20510;-67
2022/10/07 12:33:39;;;;;;;3.90;1.40;;;;;;;;;;5049128;28;20041;-70
2022/10/07 12:36:17;;;;;;;12.98;2.35;;;;;;;;;;5046889;28;20077;-67
2022/10/07 12:39:10;;;;;;;6.55;2.13;;;;;;;;;;5048022;28;20131;-70
2022/10/07 12:41:38;;;;;;;6.43;1.98;;;;;;;;;;5033975;28;20053;-68
2022/10/07 12:44:18;;;;;;;7.15;1.73;;;;;;;;;;5049205;28;20510;-65
2022/10/07 12:47:07;;;;;;;6.13;1.60;;;;;;;;;;5035926;28;20429;-68
2022/10/07 12:49:35;;;;;;;8.80;2.45;;;;;;;;;;5049229;28;20045;-68
2022/10/07 12:52:23;;;;;;;8.40;2.20;;;;;;;;;;5049591;28;20045;-71
2022/10/07 12:54:54;;;;;;;6.95;1.55;;;;;;;;;;5048201;28;20418;-67
2022/10/07 12:57:23;;;;;;;10.18;1.95;;;;;;;;;;5039687;28;20049;-69
2022/10/07 13:00:01;;;;;;;8.13;1.67;;;;;;;;;;5049617;28;20057;-71
2022/10/07 13:02:58;;;;;;;11.05;2.20;;;;;;;;;;5049258;28;20092;-69
2022/10/07 13:05:27;;;;;;;7.32;1.73;;;;;;;;;;5040948;28;20049;-68
2022/10/07 13:08:06;;;;;;;9.85;2.25;;;;;;;;;;5047667;28;20048;-67
2022/10/07 13:10:57;;;;;;;11.27;2.22;;;;;;;;;;5048291;28;20124;-67
2022/10/07 13:13:38;;;;;;;9.05;1.77;;;;;;;;;;5049205;28;20405;-68
2022/10/07 13:16:21;;;;;;;7.75;2.10;;;;;;;;;;5044964;28;20080;-67
2022/10/07 13:18:59;;;;;;;14.50;2.35;;;;;;;;;;5042642;28;20057;-67
2022/10/07 13:21:38;;;;;;;10.77;2.33;;;;;;;;;;5029739;28;20415;-70
2022/10/07 13:24:05;;;;;;;9.98;2.28;;;;;;;;;;5042309;28;20506;-69
2022/10/07 13:26:31;;;;;;;11.25;2.17;;;;;;;;;;5049000;28;20051;-71
2022/10/07 13:28:59;;;;;;;9.75;2.15;;;;;;;;;;5037570;28;20152;-72
2022/10/07 13:31:30;;;;;;;5.82;1.70;;;;;;;;;;5040419;28;20049;-73
2022/10/07 13:33:58;;;;;;;12.10;2.30;;;;;;;;;;5047296;28;20153;-69
2022/10/07 13:36:31;;;;;;;10.00;2.38;;;;;;;;;;5044653;28;20047;-67
2022/10/07 13:39:15;;;;;;;13.23;2.97;;;;;;;;;;5045051;28;20059;-72
2022/10/07 13:41:42;;;;;;;;;;;;;;;;;;5036149;28;20282;-71
2022/10/07 13:44:12;;;;;;;8.80;2.13;;;;;;;;;;5045127;28;19921;-73
2022/10/07 13:46:38;;;;;;;11.45;2.50;;;;;;;;;;5044922;28;20037;-72
2022/10/07 13:49:04;;;;;;;11.18;2.40;;;;;;;;;;5047697;28;20055;-71
2022/10/07 13:51:35;;;;;;;9.82;2.20;;;;;;;;;;5046672;28;20041;-68
2022/10/07 13:54:04;;;;;;;11.15;2.50;;;;;;;;;;5047905;28;20048;-73
2022/10/07 13:56:39;;;;;;;8.30;1.95;;;;;;;;;;5049030;28;20131;-67
2022/10/07 13:59:08;;;;;;;15.18;2.38;;;;;;;;;;5047842;28;20609;-72
2022/10/07 14:01:38;;;;;;;9.70;2.00;;;;;;;;;;5048391;28;20045;-68
2022/10/07 14:04:13;;;;;;;14.13;2.45;;;;;;;;;;5046408;28;20560;-66
2022/10/07 14:07:00;;;;;;;10.35;2.22;;;;;;;;;;5049217;28;20049;-67
2022/10/07 14:09:33;;;;;;;10.15;2.25;;;;;;;;;;5048454;28;20041;-69
2022/10/07 14:12:21;;;;;;;17.50;4.80;;;;;;;;;;5045306;28;20059;-68
2022/10/07 14:14:59;;;;;;;18.83;2.83;;;;;;;;;;5036305;28;20103;-71
2022/10/07 14:17:37;;;;;;;11.30;2.55;;;;;;;;;;5049133;28;20055;-66
2022/10/07 14:20:14;;;;;;;16.33;2.70;;;;;;;;;;5036463;28;20237;-70
2022/10/07 14:22:41;;;;;;;12.40;2.85;;;;;;;;;;5044705;28;20052;-72
2022/10/07 14:25:45;;;;;;;14.25;2.20;;;;;;;;;;5040341;28;20045;-66
2022/10/07 14:28:15;;;;;;;13.15;2.25;;;;;;;;;;4992301;28;20058;-68
2022/10/07 14:36:27;;;;;;;12.73;2.90;;;;;;;;;;4998585;28;20081;-70
2022/10/07 14:39:00;;;;;;;13.43;2.40;;;;;;;;;;4996438;28;20082;-73
2022/10/07 14:41:28;;;;;;;11.60;2.00;;;;;;;;;;5005255;28;20046;-68
2022/10/07 14:43:58;;;;;;;14.68;2.65;;;;;;;;;;4998954;28;20080;-69
2022/10/07 14:46:26;;;;;;;12.20;2.20;;;;;;;;;;5002297;28;20038;-70
2022/10/07 14:48:53;;;;;;;14.85;2.08;;;;;;;;;;5004574;28;20180;-69
2022/10/07 14:51:25;;;;;;;9.80;2.13;;;;;;;;;;5004039;28;20188;-72
2022/10/07 14:53:56;;;;;;;11.02;2.60;;;;;;;;;;5003828;28;20210;-72
2022/10/07 14:56:30;;;;;;;11.00;2.42;;;;;;;;;;5001825;28;20068;-71
2022/10/07 14:58:56;;;;;;;12.15;2.55;;;;;;;;;;5004130;28;20057;-72
2022/10/07 15:01:24;;;;;;;9.88;2.20;;;;;;;;;;5004076;28;20049;-73
2022/10/07 15:03:50;;;;;;;15.07;2.88;;;;;;;;;;5044424;28;20441;-70
2022/10/07 15:06:16;;;;;;;12.00;2.70;;;;;;;;;;5044559;28;20098;-75
2022/10/07 15:08:43;;;;;;;9.07;2.20;;;;;;;;;;5044296;28;20045;-72
2022/10/07 15:11:17;;;;;;;12.38;2.55;;;;;;;;;;5040899;28;20037;-74
2022/10/07 15:13:46;;;;;;;;;;;;;;;;;;5040080;28;20041;-73
2022/10/07 15:16:22;;;;;;;13.02;2.22;;;;;;;;;;5044849;28;19920;-69
2022/10/07 15:18:48;;;;;;;10.93;2.03;;;;;;;;;;5037144;28;20090;-72
2022/10/07 15:21:14;;;;;;;12.48;2.40;;;;;;;;;;5036378;28;20044;-71
2022/10/07 15:23:40;;;;;;;8.23;2.25;;;;;;;;;;5035125;28;20053;-70